Time;durP1;ratioP1;P1;durP2;ratioP2;P2;SDS_P1;SDS_P2;PMS_P1;PMS_P2;Temp;Humidity;BMP_temperature;BMP_pressure;BME280_temperature;BME280_humidity;BME280_pressure;Samples;Min_cycle;Max_cycle;Signal;HPM_P1;HPM_P2
2024/04/13 00:00:49;;;;;;;13.63;4.55;;;16.40;62.20;;;;;;5328731;26;20015;-51
2024/04/13 00:03:35;;;;;;;18.70;4.93;;;16.40;62.20;;;;;;5353218;26;20064;-53
2024/04/13 00:06:21;;;;;;;13.68;4.90;;;16.40;62.20;;;;;;5349223;26;20558;-52
2024/04/13 00:09:06;;;;;;;16.38;4.20;;;16.30;62.10;;;;;;5337176;26;20014;-49
2024/04/13 00:11:50;;;;;;;10.38;3.88;;;16.30;62.20;;;;;;5336604;26;20015;-50
2024/04/13 00:14:35;;;;;;;12.73;4.35;;;16.30;62.20;;;;;;5393795;26;20017;-52
2024/04/13 00:17:22;;;;;;;11.35;4.20;;;16.30;62.20;;;;;;5385861;26;20068;-50
2024/04/13 00:20:07;;;;;;;13.43;4.30;;;16.30;62.30;;;;;;5380891;26;20005;-54
2024/04/13 00:22:53;;;;;;;11.05;4.20;;;16.20;62.20;;;;;;5382111;26;20065;-51
2024/04/13 00:25:38;;;;;;;12.80;4.38;;;16.30;62.40;;;;;;5381325;26;20048;-53
2024/04/13 00:28:22;;;;;;;15.60;4.65;;;16.20;62.30;;;;;;5403023;26;20708;-53
2024/04/13 00:31:07;;;;;;;12.57;4.57;;;16.20;62.40;;;;;;5387828;26;20045;-52
2024/04/13 00:33:52;;;;;;;11.38;4.32;;;16.20;62.40;;;;;;5382076;26;20014;-52
2024/04/13 00:36:36;;;;;;;10.02;4.20;;;16.20;62.50;;;;;;5380964;26;25745;-50
2024/04/13 00:39:21;;;;;;;13.25;4.65;;;16.20;63.10;;;;;;5379098;26;20065;-54
2024/04/13 00:42:06;;;;;;;10.93;4.43;;;16.20;62.60;;;;;;5395643;26;20014;-52
2024/04/13 00:45:01;;;;;;;12.50;4.80;;;16.20;62.60;;;;;;5369591;26;20009;-49
2024/04/13 00:47:46;;;;;;;15.43;4.82;;;16.20;62.60;;;;;;5360548;26;20066;-54
2024/04/13 00:50:32;;;;;;;11.13;4.65;;;16.10;62.50;;;;;;5408951;26;20021;-51
2024/04/13 00:53:18;;;;;;;13.65;4.75;;;16.10;62.60;;;;;;5398693;26;20432;-52
2024/04/13 00:56:06;;;;;;;12.85;4.82;;;16.10;62.70;;;;;;5379849;26;20408;-49
2024/04/13 00:58:51;;;;;;;11.18;3.65;;;16.10;62.70;;;;;;5384111;26;20010;-52
2024/04/13 01:01:37;;;;;;;12.82;3.70;;;16.10;62.70;;;;;;5373298;26;20102;-53
2024/04/13 01:04:22;;;;;;;13.93;3.75;;;16.10;62.80;;;;;;5392539;26;20034;-51
2024/04/13 01:07:06;;;;;;;12.68;4.13;;;16.10;62.80;;;;;;5390049;26;20534;-50
2024/04/13 01:09:52;;;;;;;12.85;3.47;;;16.00;62.70;;;;;;5385067;26;20318;-52
2024/04/13 01:12:40;;;;;;;10.70;3.35;;;16.00;62.80;;;;;;5378102;26;20032;-55
2024/04/13 01:15:27;;;;;;;8.88;3.10;;;16.00;62.80;;;;;;5382601;26;20018;-51
2024/04/13 01:18:14;;;;;;;13.00;4.20;;;16.00;62.90;;;;;;5382577;26;20314;-54
2024/04/13 01:20:59;;;;;;;10.52;3.75;;;16.00;62.90;;;;;;5383896;26;20017;-51
2024/04/13 01:23:47;;;;;;;9.52;4.45;;;15.90;62.80;;;;;;5369789;26;20371;-53
2024/04/13 01:26:38;;;;;;;13.25;3.17;;;15.90;62.90;;;;;;5382291;26;20362;-53
2024/04/13 01:29:23;;;;;;;10.40;3.75;;;15.90;63.00;;;;;;5338183;26;20011;-51
2024/04/13 01:32:08;;;;;;;12.07;3.38;;;15.90;63.00;;;;;;5378927;26;20077;-54
2024/04/13 01:34:53;;;;;;;11.82;3.42;;;15.90;63.00;;;;;;5370475;26;20023;-52
2024/04/13 01:37:38;;;;;;;7.90;3.92;;;15.80;62.90;;;;;;5382269;26;20058;-51
2024/04/13 01:40:23;;;;;;;9.93;3.58;;;15.80;63.00;;;;;;5381764;26;20582;-53
2024/04/13 01:43:08;;;;;;;7.85;3.53;;;15.80;63.00;;;;;;5388375;26;20495;-58
2024/04/13 01:45:54;;;;;;;13.13;4.55;;;15.80;63.00;;;;;;5372906;26;20014;-48
2024/04/13 01:48:38;;;;;;;10.68;3.95;;;15.80;63.10;;;;;;5381717;26;20078;-50
2024/04/13 01:51:26;;;;;;;10.40;3.03;;;15.80;63.40;;;;;;5380524;26;20594;-49
2024/04/13 01:54:11;;;;;;;10.73;3.53;;;15.80;63.20;;;;;;5384552;26;20076;-51
2024/04/13 01:56:56;;;;;;;9.25;3.38;;;15.80;63.20;;;;;;5365355;26;20019;-52
2024/04/13 01:59:45;;;;;;;11.23;2.92;;;15.70;63.00;;;;;;5380830;26;20551;-50
2024/04/13 02:02:29;;;;;;;7.15;3.25;;;15.70;63.10;;;;;;5385216;26;20076;-50
2024/04/13 02:05:14;;;;;;;7.65;2.97;;;15.70;63.10;;;;;;5379999;26;20561;-51
2024/04/13 02:07:59;;;;;;;8.70;2.65;;;15.70;63.10;;;;;;5382126;26;20073;-52
2024/04/13 02:10:43;;;;;;;9.55;4.13;;;15.70;63.20;;;;;;5380988;26;20017;-52
2024/04/13 02:13:28;;;;;;;12.05;2.85;;;15.70;63.20;;;;;;5371703;26;20700;-52
2024/04/13 02:16:13;;;;;;;9.25;3.33;;;15.70;63.20;;;;;;5393992;26;20010;-53
2024/04/13 02:18:57;;;;;;;13.27;4.03;;;15.60;63.10;;;;;;5395803;26;20009;-53
2024/04/13 02:21:42;;;;;;;6.68;3.10;;;15.60;63.10;;;;;;5371719;26;20357;-52
2024/04/13 02:24:27;;;;;;;6.90;2.60;;;15.60;63.20;;;;;;5389432;26;20006;-52
2024/04/13 02:27:11;;;;;;;10.20;3.90;;;15.60;63.20;;;;;;5387073;26;20066;-56
2024/04/13 02:29:56;;;;;;;6.55;2.65;;;15.60;63.20;;;;;;5375832;26;20069;-51
2024/04/13 02:32:41;;;;;;;6.30;3.33;;;15.60;63.30;;;;;;5362155;26;20103;-52
2024/04/13 02:35:26;;;;;;;6.90;2.60;;;15.60;63.30;;;;;;5377408;26;20019;-54
2024/04/13 02:38:10;;;;;;;8.77;2.80;;;15.50;63.10;;;;;;5385831;26;20537;-53
2024/04/13 02:41:00;;;;;;;7.00;2.78;;;15.60;63.30;;;;;;5392187;26;20075;-52
2024/04/13 02:43:44;;;;;;;9.10;3.63;;;15.50;63.20;;;;;;5386978;26;20061;-52
2024/04/13 02:46:29;;;;;;;8.50;3.17;;;15.50;63.20;;;;;;5396527;26;20519;-50
2024/04/13 02:49:14;;;;;;;7.32;3.53;;;15.50;63.20;;;;;;5390121;26;20069;-50
2024/04/13 02:51:59;;;;;;;5.68;2.60;;;15.50;63.60;;;;;;5396969;26;20816;-52
2024/04/13 02:54:44;;;;;;;7.72;2.40;;;15.50;63.30;;;;;;5411822;26;20014;-50
2024/04/13 02:57:29;;;;;;;6.82;3.00;;;15.50;63.40;;;;;;5352808;26;20078;-52
2024/04/13 03:00:14;;;;;;;6.50;2.88;;;15.50;63.40;;;;;;5402213;26;20009;-52
2024/04/13 03:02:58;;;;;;;7.95;3.22;;;15.50;63.50;;;;;;5391270;26;20547;-54
2024/04/13 03:05:43;;;;;;;8.52;3.55;;;15.40;63.30;;;;;;5390278;26;20693;-55
2024/04/13 03:08:28;;;;;;;5.32;2.45;;;15.50;63.50;;;;;;5385308;26;20015;-53
2024/04/13 03:11:13;;;;;;;4.38;3.03;;;15.50;63.50;;;;;;5389313;26;20352;-57
2024/04/13 03:13:58;;;;;;;6.25;2.67;;;15.40;63.40;;;;;;5361391;26;20017;-52
2024/04/13 03:16:43;;;;;;;8.23;3.03;;;15.40;63.40;;;;;;5347593;26;20727;-52
2024/04/13 03:19:27;;;;;;;6.53;3.08;;;15.40;63.50;;;;;;5403687;26;20013;-52
2024/04/13 03:22:12;;;;;;;6.75;3.30;;;15.40;63.50;;;;;;5382135;26;20447;-52
2024/04/13 03:24:57;;;;;;;6.63;2.95;;;15.40;63.50;;;;;;5385295;26;20651;-50
2024/04/13 03:27:42;;;;;;;6.70;3.38;;;15.40;63.60;;;;;;5415598;26;20474;-51
2024/04/13 03:30:27;;;;;;;7.32;3.17;;;15.40;63.60;;;;;;5402652;26;20039;-52
2024/04/13 03:33:12;;;;;;;7.57;5.13;;;15.40;63.60;;;;;;5392209;26;20023;-52
2024/04/13 03:36:03;;;;;;;6.15;2.95;;;15.40;63.60;;;;;;5400773;26;20058;-49
2024/04/13 03:38:49;;;;;;;5.18;2.75;;;15.30;63.50;;;;;;5377256;26;20076;-50
2024/04/13 03:41:33;;;;;;;8.68;3.47;;;15.30;63.50;;;;;;5385337;26;20100;-52
2024/04/13 03:44:18;;;;;;;7.40;2.97;;;15.40;63.70;;;;;;5350942;26;20075;-54
2024/04/13 03:47:03;;;;;;;6.00;3.00;;;15.30;63.60;;;;;;5386424;26;20011;-51
2024/04/13 03:49:49;;;;;;;5.15;3.20;;;15.30;63.70;;;;;;5372528;26;20197;-49
2024/04/13 03:52:34;;;;;;;6.45;3.78;;;15.30;63.70;;;;;;5397016;26;20521;-51
2024/04/13 03:55:19;;;;;;;5.75;3.47;;;15.30;63.70;;;;;;5407797;26;20011;-51
2024/04/13 03:58:04;;;;;;;4.05;2.90;;;15.30;63.70;;;;;;5375751;26;20042;-53
2024/04/13 04:00:49;;;;;;;5.50;2.75;;;15.30;63.80;;;;;;5393073;26;20015;-50
2024/04/13 04:03:35;;;;;;;4.32;3.90;;;15.30;63.80;;;;;;5357663;26;20488;-55
2024/04/13 04:06:19;;;;;;;6.13;3.35;;;15.20;63.70;;;;;;5361453;26;20006;-49
2024/04/13 04:09:06;;;;;;;8.05;3.65;;;15.20;63.70;;;;;;5386419;26;20069;-53
2024/04/13 04:11:51;;;;;;;6.30;3.45;;;15.20;63.70;;;;;;5384904;26;20015;-51
2024/04/13 04:14:35;;;;;;;7.30;4.03;;;15.20;63.70;;;;;;5369425;26;20097;-53
2024/04/13 04:17:20;;;;;;;8.63;3.10;;;15.20;63.80;;;;;;5405752;26;20050;-51
2024/04/13 04:20:06;;;;;;;9.32;5.03;;;15.20;63.80;;;;;;5401081;26;20078;-48
2024/04/13 04:22:51;;;;;;;5.72;3.35;;;15.10;63.70;;;;;;5386136;26;20614;-51
2024/04/13 04:25:36;;;;;;;7.18;3.33;;;15.20;63.90;;;;;;5389229;26;20039;-57
2024/04/13 04:28:21;;;;;;;7.88;3.38;;;15.10;63.70;;;;;;5407639;26;20406;-50
2024/04/13 04:31:12;;;;;;;8.38;3.58;;;15.10;63.80;;;;;;5394329;26;20006;-54
2024/04/13 04:33:57;;;;;;;5.55;3.47;;;15.10;63.90;;;;;;5387977;26;20010;-51
2024/04/13 04:36:41;;;;;;;6.68;3.53;;;15.10;63.90;;;;;;5383567;26;20018;-51
2024/04/13 04:39:28;;;;;;;7.00;3.47;;;15.10;63.90;;;;;;5376635;26;20015;-54
2024/04/13 04:42:13;;;;;;;6.40;3.30;;;15.10;63.90;;;;;;5385399;26;20022;-52
2024/04/13 04:44:58;;;;;;;5.20;3.17;;;15.10;64.00;;;;;;5395288;26;20014;-50
2024/04/13 04:47:44;;;;;;;7.57;4.53;;;15.10;64.00;;;;;;5371213;26;20073;-51
2024/04/13 04:50:29;;;;;;;5.72;3.80;;;15.10;64.00;;;;;;5396836;26;20539;-49
2024/04/13 04:53:14;;;;;;;6.72;3.30;;;15.00;63.90;;;;;;5384376;26;20061;-50
2024/04/13 04:56:02;;;;;;;5.30;3.92;;;15.10;64.10;;;;;;5392488;26;20051;-48
2024/04/13 04:58:46;;;;;;;6.18;3.47;;;15.00;63.90;;;;;;5389962;26;20013;-54
2024/04/13 05:01:32;;;;;;;4.13;3.60;;;15.00;64.00;;;;;;5384687;26;20427;-49
2024/04/13 05:04:17;;;;;;;7.75;4.07;;;15.00;64.00;;;;;;5385459;26;20413;-48
2024/04/13 05:07:01;;;;;;;7.15;3.67;;;15.00;64.10;;;;;;5368358;26;20523;-50
2024/04/13 05:09:46;;;;;;;9.07;3.63;;;15.00;64.10;;;;;;5393287;26;20250;-52
2024/04/13 05:12:30;;;;;;;7.07;3.65;;;15.00;64.10;;;;;;5387932;26;20006;-49
2024/04/13 05:15:15;;;;;;;8.55;3.85;;;15.00;64.10;;;;;;5370239;26;20065;-53
2024/04/13 05:18:03;;;;;;;6.85;3.70;;;15.00;64.20;;;;;;5399870;26;20454;-51
2024/04/13 05:20:48;;;;;;;9.20;4.22;;;14.90;64.00;;;;;;5385906;26;20539;-53
2024/04/13 05:23:33;;;;;;;8.00;3.83;;;14.90;64.00;;;;;;5378615;26;20410;-52
2024/04/13 05:26:18;;;;;;;4.65;3.42;;;14.90;64.10;;;;;;5387558;26;20077;-52
2024/04/13 05:29:03;;;;;;;5.00;3.53;;;14.90;64.10;;;;;;5388835;26;20077;-51
2024/04/13 05:31:48;;;;;;;5.55;3.97;;;14.90;64.20;;;;;;5392156;26;20075;-54
2024/04/13 05:34:33;;;;;;;5.47;3.58;;;14.90;64.20;;;;;;5398363;26;20010;-50
2024/04/13 05:37:17;;;;;;;6.00;4.07;;;14.80;64.10;;;;;;5381075;26;20435;-51
2024/04/13 05:40:04;;;;;;;5.70;4.05;;;14.80;64.10;;;;;;5392666;26;20007;-52
2024/04/13 05:42:49;;;;;;;4.53;3.65;;;14.80;64.10;;;;;;5397726;26;20048;-49
2024/04/13 05:45:37;;;;;;;5.03;3.80;;;14.80;64.20;;;;;;5380520;26;20065;-51
2024/04/13 05:48:21;;;;;;;5.57;4.00;;;14.80;64.20;;;;;;5387700;26;20044;-53
2024/04/13 05:51:07;;;;;;;6.10;3.60;;;14.80;64.20;;;;;;5383538;26;20054;-53
2024/04/13 05:53:51;;;;;;;6.35;4.00;;;14.80;64.20;;;;;;5393530;26;20044;-52
2024/04/13 05:56:36;;;;;;;7.07;4.57;;;14.80;64.20;;;;;;5385757;26;20511;-51
2024/04/13 05:59:20;;;;;;;5.72;3.92;;;14.80;64.20;;;;;;5383397;26;20472;-52
2024/04/13 06:02:08;;;;;;;4.40;3.65;;;14.80;64.20;;;;;;5361090;26;20044;-51
2024/04/13 06:04:56;;;;;;;6.20;3.85;;;14.80;64.20;;;;;;5375862;26;20092;-51
2024/04/13 06:07:43;;;;;;;6.40;3.75;;;14.90;64.40;;;;;;5346679;26;20066;-51
2024/04/13 06:10:28;;;;;;;4.18;3.33;;;14.90;64.40;;;;;;5402669;26;20404;-50
2024/04/13 06:13:16;;;;;;;5.07;3.65;;;14.90;64.40;;;;;;5399355;26;20017;-48
2024/04/13 06:16:04;;;;;;;6.00;4.20;;;14.90;64.30;;;;;;5367679;26;20724;-53
2024/04/13 06:18:49;;;;;;;5.07;4.13;;;14.90;64.30;;;;;;5361243;26;20020;-53
2024/04/13 06:21:34;;;;;;;6.88;3.95;;;14.90;64.20;;;;;;5374422;26;21936;-54
2024/04/13 06:24:18;;;;;;;5.32;4.07;;;15.00;64.30;;;;;;5349002;26;20072;-54
2024/04/13 06:27:03;;;;;;;5.63;4.22;;;15.00;64.20;;;;;;5380836;26;20018;-51
2024/04/13 06:29:49;;;;;;;7.82;4.65;;;15.10;64.30;;;;;;5392374;26;20033;-53
2024/04/13 06:32:35;;;;;;;6.95;4.63;;;15.10;64.20;;;;;;5397928;26;20512;-53
2024/04/13 06:35:20;;;;;;;6.95;4.68;;;15.20;64.80;;;;;;5386079;26;20374;-54
2024/04/13 06:38:05;;;;;;;6.70;4.65;;;15.20;64.20;;;;;;5397692;26;20078;-52
2024/04/13 06:40:51;;;;;;;5.15;4.55;;;15.30;64.20;;;;;;5354579;26;20914;-52
2024/04/13 06:43:36;;;;;;;6.00;4.78;;;15.40;64.30;;;;;;5398326;26;20007;-51
2024/04/13 06:46:21;;;;;;;6.40;4.88;;;15.40;64.20;;;;;;5383312;26;20022;-51
2024/04/13 06:49:07;;;;;;;7.47;4.20;;;15.50;64.20;;;;;;5398566;26;20831;-50
2024/04/13 06:51:51;;;;;;;6.10;4.13;;;15.60;64.20;;;;;;5385910;26;20314;-54
2024/04/13 06:54:36;;;;;;;6.07;4.13;;;15.80;64.30;;;;;;5384574;26;20015;-53
2024/04/13 06:57:20;;;;;;;4.65;4.07;;;15.90;64.20;;;;;;5385359;26;20438;-51
2024/04/13 07:00:06;;;;;;;4.80;3.83;;;16.00;64.10;;;;;;5364140;26;20586;-53
2024/04/13 07:02:52;;;;;;;7.85;4.45;;;16.10;64.10;;;;;;5388208;26;20022;-51
2024/04/13 07:05:37;;;;;;;6.20;4.75;;;16.20;64.00;;;;;;5360637;26;20079;-51
2024/04/13 07:08:23;;;;;;;5.05;3.67;;;16.30;64.00;;;;;;5381757;26;20010;-53
2024/04/13 07:11:08;;;;;;;6.07;4.07;;;16.40;63.90;;;;;;5387538;26;20073;-53
2024/04/13 07:13:52;;;;;;;4.55;3.97;;;16.50;63.90;;;;;;5403534;26;20590;-52
2024/04/13 07:16:37;;;;;;;5.63;4.10;;;16.60;63.80;;;;;;5383278;26;20027;-52
2024/04/13 07:19:21;;;;;;;5.30;3.95;;;16.70;63.60;;;;;;5387310;26;20021;-51
2024/04/13 07:22:06;;;;;;;6.05;4.63;;;16.80;63.60;;;;;;5389262;26;20413;-54
2024/04/13 07:24:51;;;;;;;6.60;3.95;;;16.90;63.60;;;;;;5370823;26;20469;-48
2024/04/13 07:27:35;;;;;;;4.68;3.53;;;17.00;63.60;;;;;;5384717;26;20090;-52
2024/04/13 07:30:21;;;;;;;5.13;4.30;;;17.10;63.60;;;;;;5349240;26;20482;-52
2024/04/13 07:33:05;;;;;;;4.68;2.97;;;17.10;63.30;;;;;;5388279;26;20535;-52
2024/04/13 07:35:50;;;;;;;3.88;3.15;;;17.20;63.40;;;;;;5370283;26;20053;-48
2024/04/13 07:38:35;;;;;;;6.63;3.38;;;17.30;63.60;;;;;;5383728;26;20015;-51
2024/04/13 07:41:20;;;;;;;7.20;3.45;;;17.40;63.70;;;;;;5391148;26;20085;-53
2024/04/13 07:44:05;;;;;;;4.30;2.40;;;17.50;63.70;;;;;;5374842;26;20018;-50
2024/04/13 07:46:49;;;;;;;7.10;2.80;;;17.60;64.00;;;;;;5387894;26;20018;-49
2024/04/13 07:49:33;;;;;;;5.28;2.13;;;17.80;64.20;;;;;;5388120;26;20010;-53
2024/04/13 07:52:18;;;;;;;3.95;2.20;;;17.90;64.20;;;;;;5386445;26;20015;-53
2024/04/13 07:55:03;;;;;;;6.38;2.45;;;18.10;64.20;;;;;;5382402;26;20013;-53
2024/04/13 07:57:48;;;;;;;13.15;6.47;;;18.40;64.40;;;;;;5375492;26;20121;-53
2024/04/13 08:00:34;;;;;;;10.98;5.47;;;18.60;64.30;;;;;;5360295;26;20014;-56
2024/04/13 08:03:19;;;;;;;14.32;6.40;;;18.70;64.00;;;;;;5370376;26;20048;-53
2024/04/13 08:06:04;;;;;;;13.57;5.43;;;18.80;63.80;;;;;;5392472;26;20014;-50
2024/04/13 08:08:49;;;;;;;13.65;4.40;;;18.90;63.60;;;;;;5382654;26;20638;-53
2024/04/13 08:11:34;;;;;;;9.88;5.10;;;19.00;63.60;;;;;;5383709;26;20744;-53
2024/04/13 08:14:18;;;;;;;11.90;5.03;;;19.00;63.30;;;;;;5382238;26;20093;-51
2024/04/13 08:17:03;;;;;;;8.75;4.38;;;19.00;63.20;;;;;;5382526;26;20015;-53
2024/04/13 08:19:48;;;;;;;6.55;4.07;;;19.10;63.20;;;;;;5381225;26;20013;-55
2024/04/13 08:22:32;;;;;;;8.32;4.68;;;19.20;63.20;;;;;;5336859;26;20471;-54
2024/04/13 08:25:19;;;;;;;6.85;4.47;;;19.20;63.00;;;;;;5383008;26;20018;-53
2024/04/13 08:28:04;;;;;;;6.55;3.67;;;19.20;62.80;;;;;;5382058;26;20081;-50
2024/04/13 08:30:49;;;;;;;6.97;4.07;;;19.30;62.90;;;;;;5380961;26;20096;-54
2024/04/13 08:33:34;;;;;;;6.30;4.30;;;19.40;62.90;;;;;;5388083;26;20141;-54
2024/04/13 08:36:18;;;;;;;7.63;4.45;;;19.50;62.80;;;;;;5379373;26;20018;-54
2024/04/13 08:39:03;;;;;;;5.72;4.43;;;19.50;62.60;;;;;;5389727;26;20021;-54
2024/04/13 08:41:56;;;;;;;5.65;3.60;;;19.40;62.40;;;;;;5350334;26;20068;-53
2024/04/13 08:44:42;;;;;;;5.47;3.83;;;19.50;62.50;;;;;;5383155;26;20126;-53
2024/04/13 08:47:28;;;;;;;4.95;3.67;;;19.50;62.50;;;;;;5380030;26;20010;-50
2024/04/13 08:50:14;;;;;;;5.38;3.33;;;19.50;62.30;;;;;;5380035;26;20010;-50
2024/04/13 08:52:59;;;;;;;7.20;3.55;;;19.60;62.30;;;;;;5383358;26;20007;-51
2024/04/13 08:55:45;;;;;;;5.50;4.03;;;19.70;62.30;;;;;;5385682;26;20541;-53
2024/04/13 08:58:33;;;;;;;5.40;3.58;;;19.80;62.30;;;;;;5390697;26;20011;-56
2024/04/13 09:01:25;;;;;;;5.53;3.35;;;19.90;62.20;;;;;;5390095;26;20386;-55
2024/04/13 09:04:10;;;;;;;5.28;3.42;;;19.90;62.00;;;;;;5374451;26;20198;-56
2024/04/13 09:06:57;;;;;;;5.25;3.53;;;20.00;62.00;;;;;;5383617;26;20006;-54
2024/04/13 09:09:42;;;;;;;3.90;2.90;;;20.00;61.90;;;;;;5378436;26;20018;-52
2024/04/13 09:12:27;;;;;;;5.35;3.92;;;20.10;61.90;;;;;;5383673;26;20137;-53
2024/04/13 09:15:12;;;;;;;3.67;3.08;;;20.10;61.70;;;;;;5377086;26;20014;-56
2024/04/13 09:17:58;;;;;;;6.85;4.30;;;20.20;61.70;;;;;;5381417;26;20662;-53
2024/04/13 09:20:43;;;;;;;5.70;3.53;;;20.30;61.60;;;;;;5379018;26;20695;-53
2024/04/13 09:23:29;;;;;;;4.63;3.47;;;20.40;61.40;;;;;;5381420;26;20014;-52
2024/04/13 09:26:14;;;;;;;5.05;2.90;;;20.40;61.10;;;;;;5351285;26;20065;-54
2024/04/13 09:28:59;;;;;;;5.50;3.33;;;20.60;61.30;;;;;;5382599;26;20503;-53
2024/04/13 09:31:44;;;;;;;6.07;3.55;;;20.60;61.00;;;;;;5383106;26;20083;-54
2024/04/13 09:34:29;;;;;;;4.55;3.53;;;20.70;61.00;;;;;;5323802;26;20019;-54
2024/04/13 09:37:15;;;;;;;4.55;3.70;;;20.70;60.90;;;;;;5382033;26;20019;-54
2024/04/13 09:40:04;;;;;;;6.28;3.42;;;20.70;60.70;;;;;;5382128;26;20011;-52
2024/04/13 09:42:49;;;;;;;4.45;3.60;;;20.70;60.60;;;;;;5377566;26;20469;-51
2024/04/13 09:45:38;;;;;;;5.30;3.33;;;20.70;60.60;;;;;;5379541;26;20073;-54
2024/04/13 09:48:23;;;;;;;5.68;3.72;;;20.70;60.50;;;;;;5382537;26;20011;-54
2024/04/13 09:51:09;;;;;;;3.35;3.05;;;20.80;60.60;;;;;;5380956;26;20022;-55
2024/04/13 09:53:54;;;;;;;3.83;2.60;;;20.80;60.40;;;;;;5379312;26;20103;-55
2024/04/13 09:56:39;;;;;;;5.13;3.22;;;20.80;60.30;;;;;;5375807;26;20015;-54
2024/04/13 09:59:24;;;;;;;2.90;2.47;;;20.80;60.10;;;;;;5378620;26;20076;-52
2024/04/13 10:02:10;;;;;;;3.13;2.60;;;20.80;60.00;;;;;;5382489;26;20053;-53
2024/04/13 10:04:55;;;;;;;5.18;3.10;;;20.90;60.00;;;;;;5375557;26;20414;-53
2024/04/13 10:07:40;;;;;;;5.60;2.78;;;20.90;59.90;;;;;;5380889;26;20023;-54
2024/04/13 10:10:28;;;;;;;3.38;2.72;;;20.90;59.70;;;;;;5383258;26;20011;-53
2024/04/13 10:13:22;;;;;;;3.10;2.35;;;21.00;59.70;;;;;;5381775;26;20037;-53
2024/04/13 10:16:08;;;;;;;3.95;2.58;;;21.00;59.60;;;;;;5381022;26;20174;-55
2024/04/13 10:18:53;;;;;;;6.97;2.97;;;21.10;59.70;;;;;;5370324;26;20126;-52
2024/04/13 10:21:38;;;;;;;7.20;2.72;;;21.10;59.60;;;;;;5369441;26;20080;-51
2024/04/13 10:24:23;;;;;;;4.65;2.38;;;21.10;59.50;;;;;;5378458;26;20079;-50
2024/04/13 10:27:09;;;;;;;4.78;2.15;;;21.20;59.50;;;;;;5382776;26;20732;-53
2024/04/13 10:29:59;;;;;;;4.35;2.67;;;21.20;59.40;;;;;;5375175;26;20019;-51
2024/04/13 10:32:44;;;;;;;4.22;2.10;;;21.20;59.30;;;;;;5389151;26;20668;-48
2024/04/13 10:35:29;;;;;;;2.30;2.05;;;21.20;59.30;;;;;;5386606;26;20010;-54
2024/04/13 10:38:15;;;;;;;4.50;2.03;;;21.20;59.20;;;;;;5384809;26;20010;-53
2024/04/13 10:41:03;;;;;;;5.10;2.22;;;21.30;59.20;;;;;;5381404;26;20157;-52
2024/04/13 10:43:56;;;;;;;3.90;2.45;;;21.30;59.00;;;;;;5372541;26;20031;-53
2024/04/13 10:46:43;;;;;;;3.05;2.10;;;21.30;58.80;;;;;;5376836;26;20026;-54
2024/04/13 10:49:29;;;;;;;3.60;1.83;;;21.30;58.70;;;;;;5402730;26;20403;-51
2024/04/13 10:52:15;;;;;;;4.35;2.13;;;21.30;58.50;;;;;;5385137;26;20018;-50
2024/04/13 10:54:59;;;;;;;4.15;2.20;;;21.30;58.50;;;;;;5396252;26;20132;-49
2024/04/13 10:57:49;;;;;;;3.55;2.28;;;21.30;58.40;;;;;;5393040;26;20416;-52
2024/04/13 11:00:44;;;;;;;2.55;1.77;;;21.30;58.20;;;;;;5385625;26;20840;-51
2024/04/13 11:03:30;;;;;;;2.55;1.90;;;21.30;58.10;;;;;;5385799;26;20364;-53
2024/04/13 11:06:15;;;;;;;3.00;2.08;;;21.40;58.30;;;;;;5380776;26;20459;-53
2024/04/13 11:09:00;;;;;;;3.35;1.80;;;21.40;58.20;;;;;;5373462;26;20428;-53
2024/04/13 11:11:44;;;;;;;4.05;1.70;;;21.50;58.20;;;;;;5375763;26;20569;-53
2024/04/13 11:14:29;;;;;;;3.90;1.83;;;21.50;58.00;;;;;;5389638;26;20079;-53
2024/04/13 11:17:14;;;;;;;4.05;2.00;;;21.60;58.10;;;;;;5354846;26;20078;-53
2024/04/13 11:19:59;;;;;;;3.40;1.55;;;21.70;58.10;;;;;;5394385;26;20314;-52
2024/04/13 11:22:45;;;;;;;3.28;1.70;;;21.80;58.10;;;;;;5392889;26;20023;-52
2024/04/13 11:25:30;;;;;;;2.92;1.77;;;21.90;58.10;;;;;;5387683;26;20509;-53
2024/04/13 11:28:15;;;;;;;3.13;1.83;;;21.90;58.00;;;;;;5378378;26;20364;-54
2024/04/13 11:31:00;;;;;;;2.35;1.38;;;22.00;58.00;;;;;;5381393;26;20008;-52
2024/04/13 11:33:45;;;;;;;4.85;1.85;;;22.10;58.00;;;;;;5349016;26;20068;-53
2024/04/13 11:36:31;;;;;;;4.80;2.00;;;22.10;57.90;;;;;;5379284;26;20006;-57
2024/04/13 11:39:16;;;;;;;4.75;1.88;;;22.20;58.00;;;;;;5393258;26;20633;-51
2024/04/13 11:42:06;;;;;;;5.20;2.25;;;22.40;58.10;;;;;;5380411;26;20015;-53
2024/04/13 11:44:52;;;;;;;5.78;2.88;;;22.50;58.10;;;;;;5383191;26;20014;-52
2024/04/13 11:47:37;;;;;;;8.52;3.53;;;22.70;58.30;;;;;;5400514;26;20175;-51
2024/04/13 11:50:23;;;;;;;6.18;3.80;;;22.90;58.50;;;;;;5371844;26;20015;-54
2024/04/13 11:53:12;;;;;;;8.75;3.75;;;23.00;58.50;;;;;;5384117;26;20014;-52
2024/04/13 11:55:57;;;;;;;6.47;3.40;;;23.10;58.60;;;;;;5375947;26;20469;-53
2024/04/13 11:58:47;;;;;;;8.60;4.03;;;23.20;58.60;;;;;;5391117;26;20462;-52
2024/04/13 12:01:32;;;;;;;5.20;3.05;;;23.30;58.60;;;;;;5358157;26;20130;-54
2024/04/13 12:04:17;;;;;;;7.15;3.65;;;23.40;58.70;;;;;;5375606;26;20564;-56
2024/04/13 12:07:02;;;;;;;5.78;2.92;;;23.50;58.70;;;;;;5405130;26;20159;-52
2024/04/13 12:09:48;;;;;;;5.65;3.15;;;23.60;58.70;;;;;;5395083;26;20086;-52
2024/04/13 12:12:33;;;;;;;6.00;2.60;;;23.70;58.60;;;;;;5354066;26;20059;-51
2024/04/13 12:15:17;;;;;;;6.57;3.33;;;23.90;58.80;;;;;;5375207;26;20019;-53
2024/04/13 12:18:02;;;;;;;7.43;2.80;;;24.00;58.60;;;;;;5365717;26;20010;-50
2024/04/13 12:20:47;;;;;;;5.05;2.88;;;24.10;58.50;;;;;;5405779;26;20740;-53
2024/04/13 12:23:32;;;;;;;5.15;2.33;;;24.20;58.50;;;;;;5380800;26;20038;-52
2024/04/13 12:26:17;;;;;;;5.75;3.05;;;24.30;58.40;;;;;;5398687;26;20015;-50
2024/04/13 12:29:01;;;;;;;8.82;3.20;;;24.30;58.20;;;;;;5393159;26;20070;-52
2024/04/13 12:31:47;;;;;;;4.80;2.83;;;24.40;58.20;;;;;;5360330;26;20450;-52
2024/04/13 12:34:31;;;;;;;3.70;2.45;;;24.50;58.20;;;;;;5396635;26;20014;-53
2024/04/13 12:37:16;;;;;;;5.75;2.15;;;24.50;58.10;;;;;;5389467;26;20018;-49
2024/04/13 12:40:01;;;;;;;4.53;2.10;;;24.60;58.00;;;;;;5391342;26;20247;-52
2024/04/13 12:42:46;;;;;;;4.80;2.28;;;24.60;57.80;;;;;;5384867;26;20018;-54
2024/04/13 12:45:31;;;;;;;4.22;2.00;;;24.70;57.90;;;;;;5391208;26;20438;-54
2024/04/13 12:48:15;;;;;;;4.07;1.98;;;24.70;57.70;;;;;;5405169;26;20071;-52
2024/04/13 12:51:00;;;;;;;6.50;2.70;;;24.90;57.90;;;;;;5382937;26;20046;-52
2024/04/13 12:53:45;;;;;;;4.45;2.08;;;25.00;57.80;;;;;;5376355;26;20028;-54
2024/04/13 12:56:31;;;;;;;3.40;1.88;;;25.10;57.70;;;;;;5387105;26;20010;-53
2024/04/13 12:59:15;;;;;;;4.93;1.88;;;25.20;57.50;;;;;;5407217;26;20029;-48
2024/04/13 13:02:00;;;;;;;4.18;1.65;;;25.30;57.40;;;;;;5388971;26;20337;-54
2024/04/13 13:04:45;;;;;;;6.68;2.15;;;25.30;57.30;;;;;;5373798;26;20447;-53
2024/04/13 13:07:29;;;;;;;4.35;1.90;;;25.30;57.10;;;;;;5389266;26;20018;-52
2024/04/13 13:10:14;;;;;;;4.20;1.90;;;25.40;57.00;;;;;;5358043;26;20011;-51
2024/04/13 13:12:59;;;;;;;5.53;2.28;;;25.40;56.80;;;;;;5373576;26;20006;-52
2024/04/13 13:15:45;;;;;;;4.10;2.08;;;25.40;56.70;;;;;;5367190;26;20615;-54
2024/04/13 13:18:29;;;;;;;6.25;1.88;;;25.50;56.60;;;;;;5389078;26;20038;-54
2024/04/13 13:21:14;;;;;;;4.05;2.17;;;25.50;56.50;;;;;;5378054;26;20014;-49
2024/04/13 13:23:59;;;;;;;7.45;3.05;;;25.60;56.40;;;;;;5380117;26;20031;-53
2024/04/13 13:26:43;;;;;;;4.97;2.00;;;25.70;56.30;;;;;;5382371;26;20088;-53
2024/04/13 13:29:28;;;;;;;5.28;2.10;;;25.80;56.10;;;;;;5361992;26;20701;-54
2024/04/13 13:32:13;;;;;;;2.80;1.40;;;25.90;55.90;;;;;;5351886;26;20567;-50
2024/04/13 13:34:57;;;;;;;4.25;2.08;;;26.00;55.80;;;;;;5350115;26;20006;-54
2024/04/13 13:37:42;;;;;;;5.05;1.55;;;26.00;55.60;;;;;;5403594;26;20799;-53
2024/04/13 13:40:27;;;;;;;3.15;1.40;;;26.10;55.50;;;;;;5386729;26;20070;-52
2024/04/13 13:43:12;;;;;;;4.15;1.48;;;26.20;55.40;;;;;;5392607;26;20456;-48
2024/04/13 13:45:57;;;;;;;5.20;1.75;;;26.20;55.40;;;;;;5392319;26;20428;-51
2024/04/13 13:48:42;;;;;;;4.65;1.85;;;26.30;55.30;;;;;;5376437;26;20014;-49
2024/04/13 13:51:26;;;;;;;4.55;1.40;;;26.30;55.00;;;;;;5395394;26;20300;-52
2024/04/13 13:54:11;;;;;;;4.90;1.80;;;26.40;54.90;;;;;;5395094;26;20100;-53
2024/04/13 13:56:56;;;;;;;2.90;1.05;;;26.50;54.80;;;;;;5390800;26;20006;-55
2024/04/13 13:59:41;;;;;;;4.60;1.52;;;26.50;54.70;;;;;;5410302;26;20076;-54
2024/04/13 14:02:26;;;;;;;5.15;1.48;;;26.50;54.50;;;;;;5378382;26;20072;-51
2024/04/13 14:05:10;;;;;;;2.05;1.27;;;26.50;54.80;;;;;;5391481;26;20030;-52
2024/04/13 14:07:55;;;;;;;3.63;1.52;;;26.50;55.00;;;;;;5395445;26;20010;-56
2024/04/13 14:10:40;;;;;;;2.90;1.30;;;26.50;54.40;;;;;;5382829;26;20318;-53
2024/04/13 14:13:26;;;;;;;3.78;1.42;;;26.50;54.40;;;;;;5383740;26;20079;-49
2024/04/13 14:16:11;;;;;;;1.88;1.35;;;26.50;54.30;;;;;;5388059;26;20025;-50
2024/04/13 14:18:56;;;;;;;3.40;1.25;;;26.50;54.30;;;;;;5374015;26;20126;-53